sensor_id;sensor_type;location;lat;lon;timestamp;P1;durP1;ratioP1;P2;durP2;ratioP2
78856;SDS011;68207;50.078;19.936;2024-03-07T00:02:12;24.70;;;13.90;;
78856;SDS011;68207;50.078;19.936;2024-03-07T00:04:38;22.30;;;13.20;;
78856;SDS011;68207;50.078;19.936;2024-03-07T00:07:03;24.10;;;13.60;;
78856;SDS011;68207;50.078;19.936;2024-03-07T00:09:32;27.40;;;15.40;;
78856;SDS011;68207;50.078;19.936;2024-03-07T00:11:57;23.40;;;14.00;;
78856;SDS011;68207;50.078;19.936;2024-03-07T00:14:22;27.60;;;15.50;;
78856;SDS011;68207;50.078;19.936;2024-03-07T00:16:51;26.30;;;15.30;;
78856;SDS011;68207;50.078;19.936;2024-03-07T00:19:17;26.00;;;14.90;;
78856;SDS011;68207;50.078;19.936;2024-03-07T00:21:43;24.00;;;14.70;;
78856;SDS011;68207;50.078;19.936;2024-03-07T00:24:08;26.10;;;16.30;;
78856;SDS011;68207;50.078;19.936;2024-03-07T00:26:33;24.20;;;14.10;;
78856;SDS011;68207;50.078;19.936;2024-03-07T00:28:58;25.80;;;15.40;;
78856;SDS011;68207;50.078;19.936;2024-03-07T00:31:24;28.50;;;15.30;;
78856;SDS011;68207;50.078;19.936;2024-03-07T00:33:49;25.40;;;14.60;;
78856;SDS011;68207;50.078;19.936;2024-03-07T00:36:14;27.40;;;15.00;;
78856;SDS011;68207;50.078;19.936;2024-03-07T00:38:40;25.00;;;15.80;;
78856;SDS011;68207;50.078;19.936;2024-03-07T00:41:06;26.20;;;14.80;;
78856;SDS011;68207;50.078;19.936;2024-03-07T00:43:32;23.10;;;15.90;;
78856;SDS011;68207;50.078;19.936;2024-03-07T00:45:57;26.90;;;16.60;;
78856;SDS011;68207;50.078;19.936;2024-03-07T00:48:22;30.40;;;15.70;;
78856;SDS011;68207;50.078;19.936;2024-03-07T00:50:49;27.20;;;15.70;;
78856;SDS011;68207;50.078;19.936;2024-03-07T00:53:15;26.50;;;15.80;;
78856;SDS011;68207;50.078;19.936;2024-03-07T00:55:40;28.30;;;16.50;;
78856;SDS011;68207;50.078;19.936;2024-03-07T00:58:06;25.60;;;15.80;;
78856;SDS011;68207;50.078;19.936;2024-03-07T01:00:31;26.90;;;16.90;;
78856;SDS011;68207;50.078;19.936;2024-03-07T01:02:56;26.50;;;16.10;;
78856;SDS011;68207;50.078;19.936;2024-03-07T01:05:22;29.20;;;16.70;;
78856;SDS011;68207;50.078;19.936;2024-03-07T01:07:47;31.20;;;17.70;;
78856;SDS011;68207;50.078;19.936;2024-03-07T01:10:12;30.20;;;17.20;;
78856;SDS011;68207;50.078;19.936;2024-03-07T01:12:38;30.50;;;16.50;;
78856;SDS011;68207;50.078;19.936;2024-03-07T01:15:03;30.10;;;15.50;;
78856;SDS011;68207;50.078;19.936;2024-03-07T01:17:32;26.90;;;16.00;;
78856;SDS011;68207;50.078;19.936;2024-03-07T01:19:57;28.20;;;16.50;;
78856;SDS011;68207;50.078;19.936;2024-03-07T01:22:23;27.40;;;15.00;;
78856;SDS011;68207;50.078;19.936;2024-03-07T01:24:48;32.20;;;16.80;;
78856;SDS011;68207;50.078;19.936;2024-03-07T01:27:15;25.70;;;15.10;;
78856;SDS011;68207;50.078;19.936;2024-03-07T01:29:40;27.00;;;15.50;;
78856;SDS011;68207;50.078;19.936;2024-03-07T01:32:06;24.90;;;14.50;;
78856;SDS011;68207;50.078;19.936;2024-03-07T01:34:31;30.10;;;15.40;;
78856;SDS011;68207;50.078;19.936;2024-03-07T01:36:57;27.30;;;15.20;;
78856;SDS011;68207;50.078;19.936;2024-03-07T01:39:22;25.80;;;14.40;;
78856;SDS011;68207;50.078;19.936;2024-03-07T01:41:48;28.00;;;15.80;;
78856;SDS011;68207;50.078;19.936;2024-03-07T01:44:13;27.00;;;15.90;;
78856;SDS011;68207;50.078;19.936;2024-03-07T01:46:38;30.20;;;16.90;;
78856;SDS011;68207;50.078;19.936;2024-03-07T01:49:03;25.40;;;15.60;;
78856;SDS011;68207;50.078;19.936;2024-03-07T01:51:32;27.00;;;15.90;;
78856;SDS011;68207;50.078;19.936;2024-03-07T01:53:57;28.10;;;15.30;;
78856;SDS011;68207;50.078;19.936;2024-03-07T01:56:22;32.60;;;17.00;;
78856;SDS011;68207;50.078;19.936;2024-03-07T01:58:48;30.00;;;16.10;;
78856;SDS011;68207;50.078;19.936;2024-03-07T02:01:14;31.10;;;16.50;;
78856;SDS011;68207;50.078;19.936;2024-03-07T02:03:40;30.80;;;15.90;;
78856;SDS011;68207;50.078;19.936;2024-03-07T02:06:06;29.90;;;16.70;;
78856;SDS011;68207;50.078;19.936;2024-03-07T02:08:31;30.30;;;16.90;;
78856;SDS011;68207;50.078;19.936;2024-03-07T02:10:57;30.20;;;17.10;;
78856;SDS011;68207;50.078;19.936;2024-03-07T02:13:22;30.90;;;18.00;;
78856;SDS011;68207;50.078;19.936;2024-03-07T02:15:48;29.60;;;15.60;;
78856;SDS011;68207;50.078;19.936;2024-03-07T02:18:13;27.90;;;15.70;;
78856;SDS011;68207;50.078;19.936;2024-03-07T02:20:42;29.40;;;15.70;;
78856;SDS011;68207;50.078;19.936;2024-03-07T02:23:07;29.20;;;16.30;;
78856;SDS011;68207;50.078;19.936;2024-03-07T02:25:32;27.00;;;15.60;;
78856;SDS011;68207;50.078;19.936;2024-03-07T02:28:02;28.10;;;15.60;;
78856;SDS011;68207;50.078;19.936;2024-03-07T02:30:29;27.40;;;15.30;;
78856;SDS011;68207;50.078;19.936;2024-03-07T02:32:56;30.50;;;15.60;;
78856;SDS011;68207;50.078;19.936;2024-03-07T02:35:22;28.40;;;15.70;;
78856;SDS011;68207;50.078;19.936;2024-03-07T02:37:48;25.60;;;15.00;;
78856;SDS011;68207;50.078;19.936;2024-03-07T02:40:13;26.80;;;15.30;;
78856;SDS011;68207;50.078;19.936;2024-03-07T02:42:39;33.90;;;18.00;;
78856;SDS011;68207;50.078;19.936;2024-03-07T02:45:04;32.50;;;17.10;;
78856;SDS011;68207;50.078;19.936;2024-03-07T02:47:30;32.90;;;17.20;;
78856;SDS011;68207;50.078;19.936;2024-03-07T02:49:55;32.50;;;18.40;;
78856;SDS011;68207;50.078;19.936;2024-03-07T02:52:20;34.40;;;16.60;;
78856;SDS011;68207;50.078;19.936;2024-03-07T02:54:45;37.70;;;17.90;;
78856;SDS011;68207;50.078;19.936;2024-03-07T02:57:10;33.80;;;17.80;;
78856;SDS011;68207;50.078;19.936;2024-03-07T02:59:36;36.00;;;19.00;;
78856;SDS011;68207;50.078;19.936;2024-03-07T03:02:01;34.10;;;17.80;;
78856;SDS011;68207;50.078;19.936;2024-03-07T03:04:26;32.00;;;18.20;;
78856;SDS011;68207;50.078;19.936;2024-03-07T03:06:52;33.00;;;17.50;;
78856;SDS011;68207;50.078;19.936;2024-03-07T03:09:17;34.50;;;18.70;;
78856;SDS011;68207;50.078;19.936;2024-03-07T03:11:43;36.20;;;18.70;;
78856;SDS011;68207;50.078;19.936;2024-03-07T03:14:08;32.80;;;17.60;;
78856;SDS011;68207;50.078;19.936;2024-03-07T03:16:35;32.90;;;17.80;;
78856;SDS011;68207;50.078;19.936;2024-03-07T03:19:00;31.90;;;17.30;;
78856;SDS011;68207;50.078;19.936;2024-03-07T03:21:26;36.90;;;18.80;;
78856;SDS011;68207;50.078;19.936;2024-03-07T03:23:52;35.80;;;19.20;;
78856;SDS011;68207;50.078;19.936;2024-03-07T03:26:19;40.80;;;18.40;;
78856;SDS011;68207;50.078;19.936;2024-03-07T03:28:45;38.90;;;19.90;;
78856;SDS011;68207;50.078;19.936;2024-03-07T03:31:10;33.20;;;18.10;;
78856;SDS011;68207;50.078;19.936;2024-03-07T03:33:38;35.80;;;18.90;;
78856;SDS011;68207;50.078;19.936;2024-03-07T03:36:04;39.60;;;20.20;;
78856;SDS011;68207;50.078;19.936;2024-03-07T03:38:29;32.70;;;17.40;;
78856;SDS011;68207;50.078;19.936;2024-03-07T03:40:54;33.20;;;17.50;;
78856;SDS011;68207;50.078;19.936;2024-03-07T03:43:21;35.90;;;17.90;;
78856;SDS011;68207;50.078;19.936;2024-03-07T03:45:46;37.80;;;18.70;;
78856;SDS011;68207;50.078;19.936;2024-03-07T03:48:12;37.50;;;19.30;;
78856;SDS011;68207;50.078;19.936;2024-03-07T03:50:38;33.20;;;17.30;;
78856;SDS011;68207;50.078;19.936;2024-03-07T03:53:03;37.30;;;19.60;;
78856;SDS011;68207;50.078;19.936;2024-03-07T03:55:29;33.50;;;17.00;;
78856;SDS011;68207;50.078;19.936;2024-03-07T03:57:54;34.90;;;18.10;;
78856;SDS011;68207;50.078;19.936;2024-03-07T04:00:20;34.30;;;18.20;;
78856;SDS011;68207;50.078;19.936;2024-03-07T04:02:47;38.00;;;18.70;;
78856;SDS011;68207;50.078;19.936;2024-03-07T04:05:13;33.10;;;18.10;;
78856;SDS011;68207;50.078;19.936;2024-03-07T04:07:39;33.50;;;17.00;;
78856;SDS011;68207;50.078;19.936;2024-03-07T04:10:05;39.20;;;20.30;;
78856;SDS011;68207;50.078;19.936;2024-03-07T04:12:36;37.80;;;20.70;;
78856;SDS011;68207;50.078;19.936;2024-03-07T04:15:09;36.80;;;18.10;;
78856;SDS011;68207;50.078;19.936;2024-03-07T04:17:35;36.00;;;19.20;;
78856;SDS011;68207;50.078;19.936;2024-03-07T04:20:03;40.00;;;19.30;;
78856;SDS011;68207;50.078;19.936;2024-03-07T04:22:35;35.10;;;18.70;;
78856;SDS011;68207;50.078;19.936;2024-03-07T04:25:03;39.00;;;19.80;;
78856;SDS011;68207;50.078;19.936;2024-03-07T04:27:29;36.60;;;19.10;;
78856;SDS011;68207;50.078;19.936;2024-03-07T04:29:55;39.90;;;18.90;;
78856;SDS011;68207;50.078;19.936;2024-03-07T04:32:21;35.80;;;19.50;;
78856;SDS011;68207;50.078;19.936;2024-03-07T04:34:46;41.40;;;20.00;;
78856;SDS011;68207;50.078;19.936;2024-03-07T04:37:11;44.60;;;21.50;;
78856;SDS011;68207;50.078;19.936;2024-03-07T04:39:40;36.60;;;19.50;;
78856;SDS011;68207;50.078;19.936;2024-03-07T04:42:05;38.70;;;18.70;;
78856;SDS011;68207;50.078;19.936;2024-03-07T04:44:31;35.40;;;19.40;;
78856;SDS011;68207;50.078;19.936;2024-03-07T04:46:58;39.20;;;19.40;;
78856;SDS011;68207;50.078;19.936;2024-03-07T04:49:24;37.80;;;18.90;;
78856;SDS011;68207;50.078;19.936;2024-03-07T04:51:50;37.40;;;19.10;;
78856;SDS011;68207;50.078;19.936;2024-03-07T04:54:16;37.00;;;18.70;;
78856;SDS011;68207;50.078;19.936;2024-03-07T04:56:41;30.80;;;17.20;;
78856;SDS011;68207;50.078;19.936;2024-03-07T04:59:06;40.80;;;18.70;;
78856;SDS011;68207;50.078;19.936;2024-03-07T05:01:31;38.60;;;19.30;;
78856;SDS011;68207;50.078;19.936;2024-03-07T05:03:56;36.50;;;19.30;;
78856;SDS011;68207;50.078;19.936;2024-03-07T05:06:22;36.40;;;18.80;;
78856;SDS011;68207;50.078;19.936;2024-03-07T05:08:47;34.20;;;18.70;;
78856;SDS011;68207;50.078;19.936;2024-03-07T05:11:12;41.80;;;19.60;;
78856;SDS011;68207;50.078;19.936;2024-03-07T05:13:38;34.60;;;18.30;;
78856;SDS011;68207;50.078;19.936;2024-03-07T05:16:03;37.20;;;19.60;;
78856;SDS011;68207;50.078;19.936;2024-03-07T05:18:28;40.00;;;20.40;;
78856;SDS011;68207;50.078;19.936;2024-03-07T05:20:54;33.80;;;19.40;;
78856;SDS011;68207;50.078;19.936;2024-03-07T05:23:19;32.40;;;18.10;;
78856;SDS011;68207;50.078;19.936;2024-03-07T05:25:45;35.90;;;19.50;;
78856;SDS011;68207;50.078;19.936;2024-03-07T05:28:11;37.00;;;19.10;;
78856;SDS011;68207;50.078;19.936;2024-03-07T05:30:36;38.90;;;20.10;;
78856;SDS011;68207;50.078;19.936;2024-03-07T05:33:02;35.80;;;19.60;;
78856;SDS011;68207;50.078;19.936;2024-03-07T05:35:27;34.90;;;18.90;;
78856;SDS011;68207;50.078;19.936;2024-03-07T05:37:54;40.00;;;19.00;;
78856;SDS011;68207;50.078;19.936;2024-03-07T05:42:46;41.10;;;19.90;;
78856;SDS011;68207;50.078;19.936;2024-03-07T05:45:11;38.40;;;20.80;;
78856;SDS011;68207;50.078;19.936;2024-03-07T05:47:38;32.30;;;17.90;;
78856;SDS011;68207;50.078;19.936;2024-03-07T05:50:06;41.80;;;21.10;;
78856;SDS011;68207;50.078;19.936;2024-03-07T05:52:32;34.50;;;20.10;;
78856;SDS011;68207;50.078;19.936;2024-03-07T05:54:57;35.50;;;18.40;;
78856;SDS011;68207;50.078;19.936;2024-03-07T05:57:23;37.30;;;19.80;;
78856;SDS011;68207;50.078;19.936;2024-03-07T05:59:48;36.40;;;18.10;;
78856;SDS011;68207;50.078;19.936;2024-03-07T06:02:13;33.80;;;17.70;;
78856;SDS011;68207;50.078;19.936;2024-03-07T06:04:40;37.80;;;19.50;;
78856;SDS011;68207;50.078;19.936;2024-03-07T06:07:05;33.20;;;18.70;;
78856;SDS011;68207;50.078;19.936;2024-03-07T06:09:30;34.50;;;18.90;;
78856;SDS011;68207;50.078;19.936;2024-03-07T06:11:56;33.70;;;18.40;;
78856;SDS011;68207;50.078;19.936;2024-03-07T06:14:21;31.80;;;18.50;;
78856;SDS011;68207;50.078;19.936;2024-03-07T06:16:47;35.00;;;19.40;;
78856;SDS011;68207;50.078;19.936;2024-03-07T06:19:13;39.20;;;20.40;;
78856;SDS011;68207;50.078;19.936;2024-03-07T06:21:38;34.80;;;19.90;;
78856;SDS011;68207;50.078;19.936;2024-03-07T06:24:04;32.50;;;17.90;;
78856;SDS011;68207;50.078;19.936;2024-03-07T06:26:30;33.30;;;18.30;;
78856;SDS011;68207;50.078;19.936;2024-03-07T06:29:10;37.50;;;19.80;;
78856;SDS011;68207;50.078;19.936;2024-03-07T06:31:38;36.30;;;18.30;;
78856;SDS011;68207;50.078;19.936;2024-03-07T06:34:03;36.00;;;19.70;;
78856;SDS011;68207;50.078;19.936;2024-03-07T06:36:28;34.80;;;19.40;;
78856;SDS011;68207;50.078;19.936;2024-03-07T06:38:54;35.90;;;19.20;;
78856;SDS011;68207;50.078;19.936;2024-03-07T06:41:19;37.30;;;20.30;;
78856;SDS011;68207;50.078;19.936;2024-03-07T06:43:44;38.90;;;20.40;;
78856;SDS011;68207;50.078;19.936;2024-03-07T06:46:10;36.80;;;18.80;;
78856;SDS011;68207;50.078;19.936;2024-03-07T06:48:35;37.00;;;18.90;;
78856;SDS011;68207;50.078;19.936;2024-03-07T06:51:00;36.90;;;18.20;;
78856;SDS011;68207;50.078;19.936;2024-03-07T06:53:26;34.50;;;18.60;;
78856;SDS011;68207;50.078;19.936;2024-03-07T06:55:52;35.10;;;19.30;;
78856;SDS011;68207;50.078;19.936;2024-03-07T06:58:18;34.90;;;17.90;;
78856;SDS011;68207;50.078;19.936;2024-03-07T07:00:44;36.80;;;19.70;;
78856;SDS011;68207;50.078;19.936;2024-03-07T07:03:10;39.70;;;19.60;;
78856;SDS011;68207;50.078;19.936;2024-03-07T07:05:37;34.10;;;19.30;;
78856;SDS011;68207;50.078;19.936;2024-03-07T07:08:03;34.60;;;19.10;;
78856;SDS011;68207;50.078;19.936;2024-03-07T07:10:29;33.90;;;18.50;;
78856;SDS011;68207;50.078;19.936;2024-03-07T07:12:54;34.90;;;18.70;;
78856;SDS011;68207;50.078;19.936;2024-03-07T07:15:20;39.00;;;19.50;;
78856;SDS011;68207;50.078;19.936;2024-03-07T07:17:46;35.40;;;18.70;;
78856;SDS011;68207;50.078;19.936;2024-03-07T07:20:11;36.50;;;18.80;;
78856;SDS011;68207;50.078;19.936;2024-03-07T07:22:39;34.60;;;19.00;;
78856;SDS011;68207;50.078;19.936;2024-03-07T07:25:05;30.60;;;18.10;;
78856;SDS011;68207;50.078;19.936;2024-03-07T07:27:31;36.00;;;18.90;;
78856;SDS011;68207;50.078;19.936;2024-03-07T07:29:57;35.20;;;19.20;;
78856;SDS011;68207;50.078;19.936;2024-03-07T07:32:22;31.90;;;17.70;;
78856;SDS011;68207;50.078;19.936;2024-03-07T07:34:51;33.50;;;17.30;;
78856;SDS011;68207;50.078;19.936;2024-03-07T07:37:16;33.30;;;18.20;;
78856;SDS011;68207;50.078;19.936;2024-03-07T07:39:41;29.70;;;17.30;;
78856;SDS011;68207;50.078;19.936;2024-03-07T07:42:06;38.80;;;18.60;;
78856;SDS011;68207;50.078;19.936;2024-03-07T07:44:34;36.10;;;18.90;;
78856;SDS011;68207;50.078;19.936;2024-03-07T07:47:00;33.40;;;18.50;;
78856;SDS011;68207;50.078;19.936;2024-03-07T07:49:25;29.80;;;16.60;;
78856;SDS011;68207;50.078;19.936;2024-03-07T07:51:50;31.50;;;16.30;;
78856;SDS011;68207;50.078;19.936;2024-03-07T07:54:15;33.90;;;18.30;;
78856;SDS011;68207;50.078;19.936;2024-03-07T07:56:40;33.10;;;17.30;;
78856;SDS011;68207;50.078;19.936;2024-03-07T07:59:06;33.30;;;17.30;;
78856;SDS011;68207;50.078;19.936;2024-03-07T08:01:34;27.10;;;16.50;;
78856;SDS011;68207;50.078;19.936;2024-03-07T08:03:59;32.50;;;18.20;;
78856;SDS011;68207;50.078;19.936;2024-03-07T08:06:25;31.20;;;16.50;;
78856;SDS011;68207;50.078;19.936;2024-03-07T08:08:50;33.80;;;17.90;;
78856;SDS011;68207;50.078;19.936;2024-03-07T08:11:15;32.90;;;17.90;;
78856;SDS011;68207;50.078;19.936;2024-03-07T08:13:40;30.50;;;18.10;;
78856;SDS011;68207;50.078;19.936;2024-03-07T08:16:06;29.50;;;17.00;;
78856;SDS011;68207;50.078;19.936;2024-03-07T08:18:32;32.20;;;18.00;;
78856;SDS011;68207;50.078;19.936;2024-03-07T08:20:57;29.50;;;16.60;;
78856;SDS011;68207;50.078;19.936;2024-03-07T08:23:22;30.70;;;16.50;;
78856;SDS011;68207;50.078;19.936;2024-03-07T08:25:50;31.20;;;17.50;;
78856;SDS011;68207;50.078;19.936;2024-03-07T08:28:15;27.50;;;16.10;;
78856;SDS011;68207;50.078;19.936;2024-03-07T08:30:41;34.90;;;18.10;;
78856;SDS011;68207;50.078;19.936;2024-03-07T08:33:06;33.50;;;18.00;;
78856;SDS011;68207;50.078;19.936;2024-03-07T08:35:32;32.00;;;17.30;;
78856;SDS011;68207;50.078;19.936;2024-03-07T08:37:58;31.30;;;15.80;;
78856;SDS011;68207;50.078;19.936;2024-03-07T08:40:24;31.60;;;18.50;;
78856;SDS011;68207;50.078;19.936;2024-03-07T08:42:50;26.30;;;15.60;;
78856;SDS011;68207;50.078;19.936;2024-03-07T08:45:16;27.10;;;16.90;;
78856;SDS011;68207;50.078;19.936;2024-03-07T08:47:44;28.80;;;16.10;;
78856;SDS011;68207;50.078;19.936;2024-03-07T08:50:09;31.10;;;16.30;;
78856;SDS011;68207;50.078;19.936;2024-03-07T08:52:35;31.40;;;18.40;;
78856;SDS011;68207;50.078;19.936;2024-03-07T08:55:05;31.70;;;18.20;;
78856;SDS011;68207;50.078;19.936;2024-03-07T08:57:30;29.70;;;16.00;;
78856;SDS011;68207;50.078;19.936;2024-03-07T08:59:56;29.40;;;16.40;;
78856;SDS011;68207;50.078;19.936;2024-03-07T09:02:21;23.70;;;16.40;;
78856;SDS011;68207;50.078;19.936;2024-03-07T09:04:46;28.10;;;16.00;;
78856;SDS011;68207;50.078;19.936;2024-03-07T09:07:11;26.70;;;16.00;;
78856;SDS011;68207;50.078;19.936;2024-03-07T09:09:38;27.30;;;16.30;;
78856;SDS011;68207;50.078;19.936;2024-03-07T09:12:03;28.60;;;15.70;;
78856;SDS011;68207;50.078;19.936;2024-03-07T09:14:28;31.70;;;17.10;;
78856;SDS011;68207;50.078;19.936;2024-03-07T09:16:54;30.30;;;16.30;;
78856;SDS011;68207;50.078;19.936;2024-03-07T09:19:19;28.70;;;16.50;;
78856;SDS011;68207;50.078;19.936;2024-03-07T09:21:48;29.10;;;15.60;;
78856;SDS011;68207;50.078;19.936;2024-03-07T09:24:15;29.20;;;16.80;;
78856;SDS011;68207;50.078;19.936;2024-03-07T09:26:40;27.10;;;14.90;;
78856;SDS011;68207;50.078;19.936;2024-03-07T09:29:06;28.00;;;16.20;;
78856;SDS011;68207;50.078;19.936;2024-03-07T09:31:34;27.40;;;16.10;;
78856;SDS011;68207;50.078;19.936;2024-03-07T09:33:59;28.00;;;15.10;;
78856;SDS011;68207;50.078;19.936;2024-03-07T09:36:25;30.70;;;17.20;;
78856;SDS011;68207;50.078;19.936;2024-03-07T09:38:50;24.20;;;16.10;;
78856;SDS011;68207;50.078;19.936;2024-03-07T09:41:15;27.40;;;16.50;;
78856;SDS011;68207;50.078;19.936;2024-03-07T09:43:42;28.80;;;16.30;;
78856;SDS011;68207;50.078;19.936;2024-03-07T09:46:09;29.20;;;16.00;;
78856;SDS011;68207;50.078;19.936;2024-03-07T09:48:35;33.00;;;17.70;;
78856;SDS011;68207;50.078;19.936;2024-03-07T09:51:00;31.30;;;17.90;;
78856;SDS011;68207;50.078;19.936;2024-03-07T09:53:27;24.70;;;15.10;;
78856;SDS011;68207;50.078;19.936;2024-03-07T09:55:53;25.90;;;15.40;;
78856;SDS011;68207;50.078;19.936;2024-03-07T09:58:18;26.20;;;16.00;;
78856;SDS011;68207;50.078;19.936;2024-03-07T10:00:47;26.00;;;14.90;;
78856;SDS011;68207;50.078;19.936;2024-03-07T10:03:15;24.60;;;15.40;;
78856;SDS011;68207;50.078;19.936;2024-03-07T10:05:45;29.00;;;16.00;;
78856;SDS011;68207;50.078;19.936;2024-03-07T10:08:10;28.40;;;15.60;;
78856;SDS011;68207;50.078;19.936;2024-03-07T10:10:36;28.20;;;15.90;;
78856;SDS011;68207;50.078;19.936;2024-03-07T10:13:02;28.90;;;14.80;;
78856;SDS011;68207;50.078;19.936;2024-03-07T10:15:31;26.10;;;14.50;;
78856;SDS011;68207;50.078;19.936;2024-03-07T10:17:56;26.30;;;15.20;;
78856;SDS011;68207;50.078;19.936;2024-03-07T10:20:22;28.90;;;15.60;;
78856;SDS011;68207;50.078;19.936;2024-03-07T10:22:47;25.10;;;15.70;;
78856;SDS011;68207;50.078;19.936;2024-03-07T10:25:16;28.20;;;15.70;;
78856;SDS011;68207;50.078;19.936;2024-03-07T10:27:42;26.90;;;15.40;;
78856;SDS011;68207;50.078;19.936;2024-03-07T10:30:09;27.10;;;15.50;;
78856;SDS011;68207;50.078;19.936;2024-03-07T10:32:34;27.20;;;16.00;;
78856;SDS011;68207;50.078;19.936;2024-03-07T10:35:00;27.40;;;16.50;;
78856;SDS011;68207;50.078;19.936;2024-03-07T10:37:28;25.00;;;15.30;;
78856;SDS011;68207;50.078;19.936;2024-03-07T10:39:53;28.20;;;15.60;;
78856;SDS011;68207;50.078;19.936;2024-03-07T10:42:19;26.70;;;16.30;;
78856;SDS011;68207;50.078;19.936;2024-03-07T10:44:47;24.20;;;15.20;;
78856;SDS011;68207;50.078;19.936;2024-03-07T10:47:16;26.30;;;15.50;;
78856;SDS011;68207;50.078;19.936;2024-03-07T10:52:13;26.40;;;16.00;;
78856;SDS011;68207;50.078;19.936;2024-03-07T10:54:51;25.90;;;14.90;;
78856;SDS011;68207;50.078;19.936;2024-03-07T10:57:20;26.50;;;14.80;;
78856;SDS011;68207;50.078;19.936;2024-03-07T10:59:53;26.10;;;14.10;;
78856;SDS011;68207;50.078;19.936;2024-03-07T11:04:49;26.20;;;15.40;;
78856;SDS011;68207;50.078;19.936;2024-03-07T11:07:15;26.90;;;15.10;;
78856;SDS011;68207;50.078;19.936;2024-03-07T11:09:40;26.00;;;16.00;;
78856;SDS011;68207;50.078;19.936;2024-03-07T11:12:07;22.80;;;14.30;;
78856;SDS011;68207;50.078;19.936;2024-03-07T11:14:35;25.30;;;15.30;;
78856;SDS011;68207;50.078;19.936;2024-03-07T11:17:02;24.80;;;15.40;;
78856;SDS011;68207;50.078;19.936;2024-03-07T11:19:29;24.50;;;14.30;;
78856;SDS011;68207;50.078;19.936;2024-03-07T11:21:56;24.80;;;14.90;;
78856;SDS011;68207;50.078;19.936;2024-03-07T11:24:22;34.20;;;17.60;;
78856;SDS011;68207;50.078;19.936;2024-03-07T11:26:47;28.20;;;15.60;;
78856;SDS011;68207;50.078;19.936;2024-03-07T11:31:57;23.90;;;15.10;;
78856;SDS011;68207;50.078;19.936;2024-03-07T11:34:22;22.90;;;14.50;;
78856;SDS011;68207;50.078;19.936;2024-03-07T11:36:54;26.20;;;14.70;;
78856;SDS011;68207;50.078;19.936;2024-03-07T11:42:09;25.20;;;14.60;;
78856;SDS011;68207;50.078;19.936;2024-03-07T11:44:34;23.00;;;14.40;;
78856;SDS011;68207;50.078;19.936;2024-03-07T11:47:00;23.60;;;14.10;;
78856;SDS011;68207;50.078;19.936;2024-03-07T11:49:33;23.00;;;13.80;;
78856;SDS011;68207;50.078;19.936;2024-03-07T11:52:00;25.50;;;14.70;;
78856;SDS011;68207;50.078;19.936;2024-03-07T11:54:29;23.50;;;14.00;;
78856;SDS011;68207;50.078;19.936;2024-03-07T11:56:56;21.90;;;13.10;;
78856;SDS011;68207;50.078;19.936;2024-03-07T11:59:22;20.20;;;12.60;;
78856;SDS011;68207;50.078;19.936;2024-03-07T12:01:48;26.60;;;15.50;;
78856;SDS011;68207;50.078;19.936;2024-03-07T12:04:14;24.40;;;15.00;;
78856;SDS011;68207;50.078;19.936;2024-03-07T12:09:06;25.30;;;14.30;;
78856;SDS011;68207;50.078;19.936;2024-03-07T12:11:40;27.00;;;15.50;;
78856;SDS011;68207;50.078;19.936;2024-03-07T12:14:07;25.70;;;14.10;;
78856;SDS011;68207;50.078;19.936;2024-03-07T12:16:32;25.70;;;16.10;;
78856;SDS011;68207;50.078;19.936;2024-03-07T12:18:57;25.40;;;15.20;;
78856;SDS011;68207;50.078;19.936;2024-03-07T12:21:23;25.10;;;14.70;;
78856;SDS011;68207;50.078;19.936;2024-03-07T12:23:48;23.40;;;13.80;;
78856;SDS011;68207;50.078;19.936;2024-03-07T12:26:13;27.90;;;14.60;;
78856;SDS011;68207;50.078;19.936;2024-03-07T12:28:49;24.20;;;13.70;;
78856;SDS011;68207;50.078;19.936;2024-03-07T12:31:16;23.10;;;14.00;;
78856;SDS011;68207;50.078;19.936;2024-03-07T12:33:41;24.40;;;13.50;;
78856;SDS011;68207;50.078;19.936;2024-03-07T12:36:11;24.40;;;14.00;;
78856;SDS011;68207;50.078;19.936;2024-03-07T12:38:37;25.70;;;14.60;;
78856;SDS011;68207;50.078;19.936;2024-03-07T12:41:03;20.60;;;13.10;;
78856;SDS011;68207;50.078;19.936;2024-03-07T12:43:32;22.70;;;13.90;;
78856;SDS011;68207;50.078;19.936;2024-03-07T12:45:57;21.40;;;13.50;;
78856;SDS011;68207;50.078;19.936;2024-03-07T12:48:24;22.40;;;12.80;;
78856;SDS011;68207;50.078;19.936;2024-03-07T12:50:49;22.20;;;13.00;;
78856;SDS011;68207;50.078;19.936;2024-03-07T12:53:21;25.50;;;14.50;;
78856;SDS011;68207;50.078;19.936;2024-03-07T12:55:47;23.30;;;14.00;;
78856;SDS011;68207;50.078;19.936;2024-03-07T12:58:12;22.60;;;13.30;;
78856;SDS011;68207;50.078;19.936;2024-03-07T13:00:38;25.60;;;13.90;;
78856;SDS011;68207;50.078;19.936;2024-03-07T13:03:03;24.10;;;14.70;;
78856;SDS011;68207;50.078;19.936;2024-03-07T13:05:29;20.90;;;13.50;;
78856;SDS011;68207;50.078;19.936;2024-03-07T13:07:54;18.60;;;12.30;;
78856;SDS011;68207;50.078;19.936;2024-03-07T13:10:20;25.10;;;14.30;;
78856;SDS011;68207;50.078;19.936;2024-03-07T13:12:48;21.70;;;13.70;;
78856;SDS011;68207;50.078;19.936;2024-03-07T13:15:17;21.80;;;12.40;;
78856;SDS011;68207;50.078;19.936;2024-03-07T13:17:42;21.00;;;13.10;;
78856;SDS011;68207;50.078;19.936;2024-03-07T13:20:11;19.90;;;12.60;;
78856;SDS011;68207;50.078;19.936;2024-03-07T13:22:40;20.80;;;12.30;;
78856;SDS011;68207;50.078;19.936;2024-03-07T13:25:07;20.60;;;12.20;;
78856;SDS011;68207;50.078;19.936;2024-03-07T13:27:39;18.40;;;12.70;;
78856;SDS011;68207;50.078;19.936;2024-03-07T13:32:32;18.30;;;11.40;;
78856;SDS011;68207;50.078;19.936;2024-03-07T13:34:57;22.60;;;12.60;;
78856;SDS011;68207;50.078;19.936;2024-03-07T13:37:26;19.80;;;11.40;;
78856;SDS011;68207;50.078;19.936;2024-03-07T13:39:51;19.90;;;12.40;;
78856;SDS011;68207;50.078;19.936;2024-03-07T13:42:16;19.40;;;11.90;;
78856;SDS011;68207;50.078;19.936;2024-03-07T13:44:43;16.80;;;11.20;;
78856;SDS011;68207;50.078;19.936;2024-03-07T13:47:08;17.20;;;11.60;;
78856;SDS011;68207;50.078;19.936;2024-03-07T13:49:33;20.60;;;11.60;;
78856;SDS011;68207;50.078;19.936;2024-03-07T13:51:59;16.50;;;10.80;;
78856;SDS011;68207;50.078;19.936;2024-03-07T13:54:35;21.70;;;11.90;;
78856;SDS011;68207;50.078;19.936;2024-03-07T13:57:23;17.80;;;11.30;;
78856;SDS011;68207;50.078;19.936;2024-03-07T14:04:54;16.30;;;10.20;;
78856;SDS011;68207;50.078;19.936;2024-03-07T14:10:18;19.10;;;11.00;;
78856;SDS011;68207;50.078;19.936;2024-03-07T14:18:36;15.30;;;9.90;;
78856;SDS011;68207;50.078;19.936;2024-03-07T14:24:16;16.50;;;10.30;;
78856;SDS011;68207;50.078;19.936;2024-03-07T14:27:14;16.60;;;11.10;;
78856;SDS011;68207;50.078;19.936;2024-03-07T14:32:28;15.50;;;10.30;;
78856;SDS011;68207;50.078;19.936;2024-03-07T14:34:58;15.10;;;10.70;;
78856;SDS011;68207;50.078;19.936;2024-03-07T14:37:25;16.80;;;10.60;;
78856;SDS011;68207;50.078;19.936;2024-03-07T14:39:51;15.40;;;10.80;;
78856;SDS011;68207;50.078;19.936;2024-03-07T14:42:18;17.50;;;10.00;;